sensor_id;sensor_type;location;lat;lon;timestamp;pressure;altitude;pressure_sealevel;temperature;humidity
8286;BME280;4181;43.416;24.598;2023-04-26T00:01:44;98998.28;;;15.29;100.00
8286;BME280;4181;43.416;24.598;2023-04-26T00:04:09;99002.53;;;15.35;100.00
8286;BME280;4181;43.416;24.598;2023-04-26T00:06:35;99006.09;;;15.49;100.00
8286;BME280;4181;43.416;24.598;2023-04-26T00:09:01;99024.00;;;15.33;100.00
8286;BME280;4181;43.416;24.598;2023-04-26T00:11:27;99013.13;;;15.41;100.00
8286;BME280;4181;43.416;24.598;2023-04-26T00:13:53;99014.22;;;15.54;100.00
8286;BME280;4181;43.416;24.598;2023-04-26T00:16:18;99015.00;;;15.54;100.00
8286;BME280;4181;43.416;24.598;2023-04-26T00:18:44;99017.66;;;15.59;100.00
8286;BME280;4181;43.416;24.598;2023-04-26T00:21:10;99000.41;;;15.45;100.00
8286;BME280;4181;43.416;24.598;2023-04-26T00:23:36;99003.50;;;15.52;100.00
8286;BME280;4181;43.416;24.598;2023-04-26T00:26:02;99009.53;;;15.54;100.00
8286;BME280;4181;43.416;24.598;2023-04-26T00:28:28;99011.34;;;15.59;100.00
8286;BME280;4181;43.416;24.598;2023-04-26T00:30:54;99012.63;;;15.39;100.00
8286;BME280;4181;43.416;24.598;2023-04-26T00:33:22;99003.88;;;15.37;100.00
8286;BME280;4181;43.416;24.598;2023-04-26T00:35:48;99014.81;;;15.51;100.00
8286;BME280;4181;43.416;24.598;2023-04-26T00:38:13;98998.75;;;15.44;100.00
8286;BME280;4181;43.416;24.598;2023-04-26T00:40:39;99011.63;;;15.57;100.00
8286;BME280;4181;43.416;24.598;2023-04-26T00:43:05;99014.91;;;15.59;100.00
8286;BME280;4181;43.416;24.598;2023-04-26T00:45:30;98994.84;;;15.59;100.00
8286;BME280;4181;43.416;24.598;2023-04-26T00:48:00;99003.16;;;15.67;100.00
8286;BME280;4181;43.416;24.598;2023-04-26T00:50:26;99011.03;;;15.60;100.00
8286;BME280;4181;43.416;24.598;2023-04-26T00:52:51;99014.16;;;15.45;100.00
8286;BME280;4181;43.416;24.598;2023-04-26T00:55:20;98997.34;;;15.47;100.00
8286;BME280;4181;43.416;24.598;2023-04-26T00:57:46;98993.88;;;15.41;100.00
8286;BME280;4181;43.416;24.598;2023-04-26T01:00:12;98999.59;;;15.45;100.00
8286;BME280;4181;43.416;24.598;2023-04-26T01:02:39;99004.25;;;15.44;100.00
8286;BME280;4181;43.416;24.598;2023-04-26T01:05:05;98984.75;;;15.32;100.00
8286;BME280;4181;43.416;24.598;2023-04-26T01:07:31;98988.16;;;15.38;100.00
8286;BME280;4181;43.416;24.598;2023-04-26T01:09:58;98984.97;;;15.22;100.00
8286;BME280;4181;43.416;24.598;2023-04-26T01:12:23;98998.41;;;15.10;100.00
8286;BME280;4181;43.416;24.598;2023-04-26T01:14:50;98987.41;;;15.23;100.00
8286;BME280;4181;43.416;24.598;2023-04-26T01:17:15;98972.34;;;15.21;100.00
8286;BME280;4181;43.416;24.598;2023-04-26T01:19:48;98976.00;;;15.30;100.00
8286;BME280;4181;43.416;24.598;2023-04-26T01:22:14;98995.13;;;15.21;100.00
8286;BME280;4181;43.416;24.598;2023-04-26T01:24:42;98997.97;;;15.30;100.00
8286;BME280;4181;43.416;24.598;2023-04-26T01:27:09;98986.78;;;15.27;100.00
8286;BME280;4181;43.416;24.598;2023-04-26T01:29:34;98983.22;;;15.26;100.00
8286;BME280;4181;43.416;24.598;2023-04-26T01:32:00;98990.13;;;15.37;100.00
8286;BME280;4181;43.416;24.598;2023-04-26T01:34:25;98977.59;;;15.31;100.00
8286;BME280;4181;43.416;24.598;2023-04-26T01:36:51;98986.03;;;15.35;100.00
8286;BME280;4181;43.416;24.598;2023-04-26T01:39:16;98989.34;;;15.23;100.00
8286;BME280;4181;43.416;24.598;2023-04-26T01:41:42;98976.34;;;15.15;100.00
8286;BME280;4181;43.416;24.598;2023-04-26T01:44:07;98967.84;;;15.25;100.00
8286;BME280;4181;43.416;24.598;2023-04-26T01:46:33;98972.94;;;15.32;100.00
8286;BME280;4181;43.416;24.598;2023-04-26T01:48:58;98958.47;;;15.26;100.00
8286;BME280;4181;43.416;24.598;2023-04-26T01:51:23;98974.22;;;15.34;100.00
8286;BME280;4181;43.416;24.598;2023-04-26T01:53:49;98973.44;;;15.34;100.00
8286;BME280;4181;43.416;24.598;2023-04-26T01:56:15;98982.50;;;15.20;100.00
8286;BME280;4181;43.416;24.598;2023-04-26T01:58:40;98973.38;;;15.11;100.00
8286;BME280;4181;43.416;24.598;2023-04-26T02:01:07;98967.16;;;15.19;100.00
8286;BME280;4181;43.416;24.598;2023-04-26T02:03:34;98968.28;;;15.18;100.00
8286;BME280;4181;43.416;24.598;2023-04-26T02:06:00;98969.09;;;15.19;100.00
8286;BME280;4181;43.416;24.598;2023-04-26T02:08:25;98963.97;;;15.26;100.00
8286;BME280;4181;43.416;24.598;2023-04-26T02:10:51;98965.00;;;15.30;100.00
8286;BME280;4181;43.416;24.598;2023-04-26T02:13:16;98946.66;;;15.25;100.00
8286;BME280;4181;43.416;24.598;2023-04-26T02:15:47;98961.44;;;15.30;100.00
8286;BME280;4181;43.416;24.598;2023-04-26T02:18:12;98966.59;;;15.31;100.00
8286;BME280;4181;43.416;24.598;2023-04-26T02:20:41;98963.97;;;15.26;100.00
8286;BME280;4181;43.416;24.598;2023-04-26T02:23:10;98956.19;;;15.06;100.00
8286;BME280;4181;43.416;24.598;2023-04-26T02:25:37;98960.75;;;15.10;100.00
8286;BME280;4181;43.416;24.598;2023-04-26T02:28:04;98980.09;;;15.05;100.00
8286;BME280;4181;43.416;24.598;2023-04-26T02:30:29;98970.13;;;15.09;100.00
8286;BME280;4181;43.416;24.598;2023-04-26T02:32:56;98969.81;;;15.11;100.00
8286;BME280;4181;43.416;24.598;2023-04-26T02:35:22;98971.63;;;14.80;100.00
8286;BME280;4181;43.416;24.598;2023-04-26T02:37:48;98974.03;;;14.95;100.00
8286;BME280;4181;43.416;24.598;2023-04-26T02:40:14;98980.41;;;15.04;100.00
8286;BME280;4181;43.416;24.598;2023-04-26T02:42:39;98978.09;;;14.97;100.00
8286;BME280;4181;43.416;24.598;2023-04-26T02:45:05;98975.03;;;14.99;100.00
8286;BME280;4181;43.416;24.598;2023-04-26T02:47:32;98975.22;;;15.02;100.00
8286;BME280;4181;43.416;24.598;2023-04-26T02:49:57;98981.13;;;14.96;100.00
8286;BME280;4181;43.416;24.598;2023-04-26T02:52:23;98989.91;;;14.84;100.00
8286;BME280;4181;43.416;24.598;2023-04-26T02:54:48;98985.66;;;14.65;100.00
8286;BME280;4181;43.416;24.598;2023-04-26T02:57:13;98991.94;;;14.79;100.00
8286;BME280;4181;43.416;24.598;2023-04-26T02:59:39;98988.88;;;14.80;100.00
8286;BME280;4181;43.416;24.598;2023-04-26T03:02:05;98998.34;;;14.88;100.00
8286;BME280;4181;43.416;24.598;2023-04-26T03:04:32;99002.81;;;14.84;100.00
8286;BME280;4181;43.416;24.598;2023-04-26T03:06:58;99007.81;;;14.82;100.00
8286;BME280;4181;43.416;24.598;2023-04-26T03:09:23;99014.94;;;14.69;100.00
8286;BME280;4181;43.416;24.598;2023-04-26T03:11:49;99015.53;;;14.80;100.00
8286;BME280;4181;43.416;24.598;2023-04-26T03:14:14;99016.16;;;14.77;100.00
8286;BME280;4181;43.416;24.598;2023-04-26T03:16:42;99025.00;;;14.74;100.00
8286;BME280;4181;43.416;24.598;2023-04-26T03:19:08;99019.59;;;14.69;100.00
8286;BME280;4181;43.416;24.598;2023-04-26T03:21:34;99024.00;;;14.70;100.00
8286;BME280;4181;43.416;24.598;2023-04-26T03:23:59;99023.16;;;14.69;100.00
8286;BME280;4181;43.416;24.598;2023-04-26T03:26:25;99028.53;;;14.61;100.00
8286;BME280;4181;43.416;24.598;2023-04-26T03:28:50;99021.84;;;14.53;100.00
8286;BME280;4181;43.416;24.598;2023-04-26T03:31:16;99022.75;;;14.49;100.00
8286;BME280;4181;43.416;24.598;2023-04-26T03:33:41;99018.69;;;14.46;100.00
8286;BME280;4181;43.416;24.598;2023-04-26T03:36:07;99032.19;;;14.43;100.00
8286;BME280;4181;43.416;24.598;2023-04-26T03:38:33;99030.09;;;14.21;100.00
8286;BME280;4181;43.416;24.598;2023-04-26T03:40:58;99019.44;;;14.20;100.00
8286;BME280;4181;43.416;24.598;2023-04-26T03:43:24;99030.91;;;14.22;100.00
8286;BME280;4181;43.416;24.598;2023-04-26T03:45:51;99034.38;;;14.27;100.00
8286;BME280;4181;43.416;24.598;2023-04-26T03:48:16;99037.44;;;14.26;100.00
8286;BME280;4181;43.416;24.598;2023-04-26T03:50:42;99025.63;;;14.12;100.00
8286;BME280;4181;43.416;24.598;2023-04-26T03:53:09;99030.78;;;14.32;100.00
8286;BME280;4181;43.416;24.598;2023-04-26T03:55:36;99023.63;;;14.31;100.00
8286;BME280;4181;43.416;24.598;2023-04-26T03:58:01;99014.69;;;14.39;100.00
8286;BME280;4181;43.416;24.598;2023-04-26T04:00:27;99011.34;;;14.69;100.00
8286;BME280;4181;43.416;24.598;2023-04-26T04:02:53;99019.59;;;14.69;100.00
8286;BME280;4181;43.416;24.598;2023-04-26T04:05:18;99009.84;;;14.90;100.00
8286;BME280;4181;43.416;24.598;2023-04-26T04:07:44;99001.47;;;15.08;100.00
8286;BME280;4181;43.416;24.598;2023-04-26T04:10:09;99010.56;;;15.31;100.00
8286;BME280;4181;43.416;24.598;2023-04-26T04:12:35;99014.25;;;15.40;100.00
8286;BME280;4181;43.416;24.598;2023-04-26T04:15:01;99025.97;;;15.68;100.00
8286;BME280;4181;43.416;24.598;2023-04-26T04:17:29;99022.03;;;15.82;100.00
8286;BME280;4181;43.416;24.598;2023-04-26T04:19:55;99028.41;;;16.13;100.00
8286;BME280;4181;43.416;24.598;2023-04-26T04:22:20;99042.97;;;16.14;100.00
8286;BME280;4181;43.416;24.598;2023-04-26T04:24:46;99041.28;;;16.04;100.00
8286;BME280;4181;43.416;24.598;2023-04-26T04:27:11;99051.13;;;15.97;100.00
8286;BME280;4181;43.416;24.598;2023-04-26T04:29:37;99052.16;;;15.65;100.00
8286;BME280;4181;43.416;24.598;2023-04-26T04:32:02;99064.25;;;15.42;100.00
8286;BME280;4181;43.416;24.598;2023-04-26T04:34:33;99068.69;;;15.38;100.00
8286;BME280;4181;43.416;24.598;2023-04-26T04:36:58;99064.00;;;15.39;100.00
8286;BME280;4181;43.416;24.598;2023-04-26T04:39:24;99076.44;;;15.36;100.00
8286;BME280;4181;43.416;24.598;2023-04-26T04:41:49;99062.50;;;15.46;100.00
8286;BME280;4181;43.416;24.598;2023-04-26T04:44:17;99052.03;;;15.92;100.00
8286;BME280;4181;43.416;24.598;2023-04-26T04:46:43;99038.53;;;16.26;100.00
8286;BME280;4181;43.416;24.598;2023-04-26T04:49:10;99036.56;;;16.49;100.00
8286;BME280;4181;43.416;24.598;2023-04-26T04:51:39;99022.00;;;16.88;100.00
8286;BME280;4181;43.416;24.598;2023-04-26T04:54:23;99026.13;;;17.07;100.00
8286;BME280;4181;43.416;24.598;2023-04-26T04:56:48;99020.25;;;17.00;100.00
8286;BME280;4181;43.416;24.598;2023-04-26T04:59:13;99024.66;;;17.10;100.00
8286;BME280;4181;43.416;24.598;2023-04-26T05:01:39;99023.03;;;17.09;100.00
8286;BME280;4181;43.416;24.598;2023-04-26T05:04:05;99034.88;;;17.18;100.00
8286;BME280;4181;43.416;24.598;2023-04-26T05:06:31;99031.34;;;17.34;100.00
8286;BME280;4181;43.416;24.598;2023-04-26T05:08:57;99021.69;;;17.54;100.00
8286;BME280;4181;43.416;24.598;2023-04-26T05:11:23;99014.38;;;17.92;100.00
8286;BME280;4181;43.416;24.598;2023-04-26T05:13:49;99004.25;;;18.13;100.00
8286;BME280;4181;43.416;24.598;2023-04-26T05:16:15;98994.63;;;18.28;100.00
8286;BME280;4181;43.416;24.598;2023-04-26T05:18:41;99003.50;;;17.96;100.00
8286;BME280;4181;43.416;24.598;2023-04-26T05:21:06;99013.69;;;17.52;100.00
8286;BME280;4181;43.416;24.598;2023-04-26T05:23:32;98998.13;;;17.91;100.00
8286;BME280;4181;43.416;24.598;2023-04-26T05:26:05;99008.78;;;18.26;100.00
8286;BME280;4181;43.416;24.598;2023-04-26T05:28:31;99000.22;;;18.11;100.00
8286;BME280;4181;43.416;24.598;2023-04-26T05:30:57;99007.84;;;18.05;100.00
8286;BME280;4181;43.416;24.598;2023-04-26T05:33:22;99007.47;;;18.32;100.00
8286;BME280;4181;43.416;24.598;2023-04-26T05:35:48;99018.88;;;18.05;100.00
8286;BME280;4181;43.416;24.598;2023-04-26T05:38:13;99034.63;;;17.88;100.00
8286;BME280;4181;43.416;24.598;2023-04-26T05:40:39;99030.94;;;17.92;100.00
8286;BME280;4181;43.416;24.598;2023-04-26T05:43:04;99016.28;;;18.17;100.00
8286;BME280;4181;43.416;24.598;2023-04-26T05:45:30;99007.53;;;18.61;100.00
8286;BME280;4181;43.416;24.598;2023-04-26T05:47:56;98999.75;;;19.22;100.00
8286;BME280;4181;43.416;24.598;2023-04-26T05:50:21;99000.41;;;19.48;100.00
8286;BME280;4181;43.416;24.598;2023-04-26T05:52:47;99007.00;;;19.35;100.00
8286;BME280;4181;43.416;24.598;2023-04-26T05:55:12;99031.00;;;18.84;100.00
8286;BME280;4181;43.416;24.598;2023-04-26T05:57:38;99012.03;;;18.74;100.00
8286;BME280;4181;43.416;24.598;2023-04-26T06:00:06;99021.31;;;19.08;100.00
8286;BME280;4181;43.416;24.598;2023-04-26T06:02:34;99011.00;;;19.17;100.00
8286;BME280;4181;43.416;24.598;2023-04-26T06:04:59;99014.72;;;19.29;100.00
8286;BME280;4181;43.416;24.598;2023-04-26T06:07:25;99014.38;;;19.72;100.00
8286;BME280;4181;43.416;24.598;2023-04-26T06:09:50;98999.03;;;20.16;100.00
8286;BME280;4181;43.416;24.598;2023-04-26T06:12:16;99009.56;;;20.01;100.00
8286;BME280;4181;43.416;24.598;2023-04-26T06:14:41;99028.81;;;19.98;100.00
8286;BME280;4181;43.416;24.598;2023-04-26T06:17:06;99025.25;;;19.77;100.00
8286;BME280;4181;43.416;24.598;2023-04-26T06:19:32;99029.09;;;19.84;100.00
8286;BME280;4181;43.416;24.598;2023-04-26T06:21:57;99007.88;;;20.09;100.00
8286;BME280;4181;43.416;24.598;2023-04-26T06:24:23;99031.28;;;20.11;100.00
8286;BME280;4181;43.416;24.598;2023-04-26T06:26:50;99039.16;;;19.89;100.00
8286;BME280;4181;43.416;24.598;2023-04-26T06:29:15;99030.91;;;20.01;100.00
8286;BME280;4181;43.416;24.598;2023-04-26T06:31:41;99026.97;;;20.23;100.00
8286;BME280;4181;43.416;24.598;2023-04-26T06:34:06;99027.25;;;20.09;100.00
8286;BME280;4181;43.416;24.598;2023-04-26T06:36:32;99021.16;;;20.36;100.00
8286;BME280;4181;43.416;24.598;2023-04-26T06:38:57;99013.34;;;20.18;100.00
8286;BME280;4181;43.416;24.598;2023-04-26T06:41:23;99033.69;;;20.34;100.00
8286;BME280;4181;43.416;24.598;2023-04-26T06:43:48;99045.63;;;19.93;100.00
8286;BME280;4181;43.416;24.598;2023-04-26T06:46:13;99034.00;;;20.20;100.00
8286;BME280;4181;43.416;24.598;2023-04-26T06:48:39;99035.44;;;20.38;100.00
8286;BME280;4181;43.416;24.598;2023-04-26T06:51:08;99032.03;;;20.65;100.00
8286;BME280;4181;43.416;24.598;2023-04-26T06:53:34;99036.16;;;21.04;100.00
8286;BME280;4181;43.416;24.598;2023-04-26T06:56:00;99019.75;;;21.11;100.00
8286;BME280;4181;43.416;24.598;2023-04-26T06:58:25;99021.72;;;21.22;100.00
8286;BME280;4181;43.416;24.598;2023-04-26T07:00:51;99036.50;;;21.02;100.00
8286;BME280;4181;43.416;24.598;2023-04-26T07:03:16;99042.13;;;20.94;100.00
8286;BME280;4181;43.416;24.598;2023-04-26T07:05:42;99031.63;;;21.11;100.00
8286;BME280;4181;43.416;24.598;2023-04-26T07:08:07;99028.63;;;21.28;100.00
8286;BME280;4181;43.416;24.598;2023-04-26T07:10:33;99045.16;;;21.25;100.00
8286;BME280;4181;43.416;24.598;2023-04-26T07:12:59;99045.63;;;21.27;100.00
8286;BME280;4181;43.416;24.598;2023-04-26T07:15:24;99053.16;;;21.02;100.00
8286;BME280;4181;43.416;24.598;2023-04-26T07:17:50;99047.56;;;20.90;100.00
8286;BME280;4181;43.416;24.598;2023-04-26T07:20:15;99038.69;;;21.09;100.00
8286;BME280;4181;43.416;24.598;2023-04-26T07:22:44;99039.53;;;21.09;100.00
8286;BME280;4181;43.416;24.598;2023-04-26T07:25:10;99044.56;;;21.31;100.00
8286;BME280;4181;43.416;24.598;2023-04-26T07:27:36;99024.19;;;21.64;100.00
8286;BME280;4181;43.416;24.598;2023-04-26T07:30:04;99022.38;;;21.44;100.00
8286;BME280;4181;43.416;24.598;2023-04-26T07:32:30;99035.94;;;21.09;100.00
8286;BME280;4181;43.416;24.598;2023-04-26T07:34:58;99051.53;;;20.57;100.00
8286;BME280;4181;43.416;24.598;2023-04-26T07:37:24;99070.09;;;20.44;100.00
8286;BME280;4181;43.416;24.598;2023-04-26T07:39:49;99069.69;;;20.54;100.00
8286;BME280;4181;43.416;24.598;2023-04-26T07:42:15;99066.78;;;20.51;100.00
8286;BME280;4181;43.416;24.598;2023-04-26T07:44:40;99068.44;;;20.31;100.00
8286;BME280;4181;43.416;24.598;2023-04-26T07:47:12;99072.53;;;19.92;100.00
8286;BME280;4181;43.416;24.598;2023-04-26T07:49:38;99097.59;;;19.67;100.00
8286;BME280;4181;43.416;24.598;2023-04-26T07:52:04;99072.75;;;19.99;100.00
8286;BME280;4181;43.416;24.598;2023-04-26T07:54:29;99081.78;;;20.17;100.00
8286;BME280;4181;43.416;24.598;2023-04-26T07:56:55;99074.06;;;20.02;100.00
8286;BME280;4181;43.416;24.598;2023-04-26T07:59:21;99068.88;;;20.21;100.00
8286;BME280;4181;43.416;24.598;2023-04-26T08:01:47;99077.22;;;20.33;100.00
8286;BME280;4181;43.416;24.598;2023-04-26T08:04:13;99066.72;;;20.39;100.00
8286;BME280;4181;43.416;24.598;2023-04-26T08:06:38;99067.69;;;20.43;100.00
8286;BME280;4181;43.416;24.598;2023-04-26T08:09:03;99078.50;;;20.36;100.00
8286;BME280;4181;43.416;24.598;2023-04-26T08:11:29;99080.25;;;20.20;100.00
8286;BME280;4181;43.416;24.598;2023-04-26T08:13:55;99070.34;;;20.19;100.00
8286;BME280;4181;43.416;24.598;2023-04-26T08:16:20;99071.91;;;20.07;100.00
8286;BME280;4181;43.416;24.598;2023-04-26T08:18:46;99074.41;;;20.54;100.00
8286;BME280;4181;43.416;24.598;2023-04-26T08:21:12;99055.38;;;20.76;100.00
8286;BME280;4181;43.416;24.598;2023-04-26T08:23:37;99028.03;;;21.35;100.00
8286;BME280;4181;43.416;24.598;2023-04-26T08:26:03;99032.97;;;21.54;100.00
8286;BME280;4181;43.416;24.598;2023-04-26T08:28:28;99035.63;;;21.62;100.00
8286;BME280;4181;43.416;24.598;2023-04-26T08:30:54;99034.69;;;21.82;100.00
8286;BME280;4181;43.416;24.598;2023-04-26T08:33:19;99039.72;;;21.41;100.00
8286;BME280;4181;43.416;24.598;2023-04-26T08:35:45;99033.66;;;21.75;100.00
8286;BME280;4181;43.416;24.598;2023-04-26T08:38:10;99035.03;;;21.69;100.00
8286;BME280;4181;43.416;24.598;2023-04-26T08:40:36;99028.13;;;22.02;100.00
8286;BME280;4181;43.416;24.598;2023-04-26T08:43:01;99020.94;;;22.29;100.00
8286;BME280;4181;43.416;24.598;2023-04-26T08:45:27;99022.38;;;22.23;100.00
8286;BME280;4181;43.416;24.598;2023-04-26T08:47:56;99020.94;;;22.72;100.00
8286;BME280;4181;43.416;24.598;2023-04-26T08:50:23;99012.53;;;22.84;100.00
8286;BME280;4181;43.416;24.598;2023-04-26T08:52:50;99013.59;;;22.95;100.00
8286;BME280;4181;43.416;24.598;2023-04-26T08:55:17;99028.84;;;22.70;100.00
8286;BME280;4181;43.416;24.598;2023-04-26T08:57:48;99028.66;;;22.79;100.00
8286;BME280;4181;43.416;24.598;2023-04-26T09:00:15;99023.84;;;22.91;100.00
8286;BME280;4181;43.416;24.598;2023-04-26T09:02:49;99026.69;;;22.79;100.00
8286;BME280;4181;43.416;24.598;2023-04-26T09:05:16;99020.78;;;22.81;100.00
8286;BME280;4181;43.416;24.598;2023-04-26T09:07:43;99026.97;;;22.74;100.00
8286;BME280;4181;43.416;24.598;2023-04-26T09:10:10;99031.81;;;22.77;100.00
8286;BME280;4181;43.416;24.598;2023-04-26T09:12:37;99040.53;;;22.48;100.00
8286;BME280;4181;43.416;24.598;2023-04-26T09:15:06;99036.69;;;22.52;100.00
8286;BME280;4181;43.416;24.598;2023-04-26T09:17:38;99030.19;;;22.61;100.00
8286;BME280;4181;43.416;24.598;2023-04-26T09:20:24;99024.72;;;22.64;100.00
8286;BME280;4181;43.416;24.598;2023-04-26T09:22:52;99025.78;;;22.75;100.00
8286;BME280;4181;43.416;24.598;2023-04-26T09:25:26;99018.88;;;23.00;100.00
8286;BME280;4181;43.416;24.598;2023-04-26T09:27:52;99016.47;;;22.83;100.00
8286;BME280;4181;43.416;24.598;2023-04-26T09:30:18;99008.75;;;22.61;100.00
8286;BME280;4181;43.416;24.598;2023-04-26T09:32:49;99035.59;;;22.41;100.00
8286;BME280;4181;43.416;24.598;2023-04-26T09:40:42;99026.25;;;22.77;100.00
8286;BME280;4181;43.416;24.598;2023-04-26T09:43:18;99028.31;;;22.96;100.00
8286;BME280;4181;43.416;24.598;2023-04-26T09:45:53;99023.94;;;22.95;100.00
8286;BME280;4181;43.416;24.598;2023-04-26T09:48:23;99038.41;;;22.57;100.00
8286;BME280;4181;43.416;24.598;2023-04-26T09:50:56;99041.31;;;22.33;100.00
8286;BME280;4181;43.416;24.598;2023-04-26T09:53:49;99036.91;;;22.32;100.00
8286;BME280;4181;43.416;24.598;2023-04-26T09:56:17;99045.88;;;22.53;100.00
8286;BME280;4181;43.416;24.598;2023-04-26T10:01:09;99030.19;;;22.76;100.00
8286;BME280;4181;43.416;24.598;2023-04-26T10:03:36;99036.75;;;22.84;100.00
8286;BME280;4181;43.416;24.598;2023-04-26T10:06:02;99034.50;;;22.58;100.00
8286;BME280;4181;43.416;24.598;2023-04-26T10:08:30;99041.94;;;22.42;100.00
8286;BME280;4181;43.416;24.598;2023-04-26T10:10:55;99035.72;;;22.17;100.00
8286;BME280;4181;43.416;24.598;2023-04-26T10:13:21;99045.00;;;22.09;100.00
8286;BME280;4181;43.416;24.598;2023-04-26T10:15:47;99057.41;;;22.00;100.00
8286;BME280;4181;43.416;24.598;2023-04-26T10:18:13;99061.41;;;21.75;100.00
8286;BME280;4181;43.416;24.598;2023-04-26T10:20:40;99065.56;;;21.69;100.00
8286;BME280;4181;43.416;24.598;2023-04-26T10:23:16;99057.84;;;21.38;100.00
8286;BME280;4181;43.416;24.598;2023-04-26T10:25:45;99060.16;;;21.60;100.00
8286;BME280;4181;43.416;24.598;2023-04-26T10:28:10;99055.78;;;21.59;100.00
8286;BME280;4181;43.416;24.598;2023-04-26T10:30:56;99045.50;;;21.48;100.00
8286;BME280;4181;43.416;24.598;2023-04-26T10:33:23;99066.66;;;21.52;100.00
8286;BME280;4181;43.416;24.598;2023-04-26T10:36:10;99076.50;;;21.25;100.00
8286;BME280;4181;43.416;24.598;2023-04-26T10:38:38;99072.09;;;21.12;100.00
8286;BME280;4181;43.416;24.598;2023-04-26T10:41:33;99080.81;;;20.90;100.00
8286;BME280;4181;43.416;24.598;2023-04-26T10:44:45;99082.34;;;20.88;100.00
8286;BME280;4181;43.416;24.598;2023-04-26T10:46:50;99085.66;;;20.69;100.00
8286;BME280;4181;43.416;24.598;2023-04-26T10:49:18;99095.31;;;20.51;100.00
8286;BME280;4181;43.416;24.598;2023-04-26T10:52:08;99080.53;;;20.59;100.00
8286;BME280;4181;43.416;24.598;2023-04-26T10:54:52;99097.25;;;20.51;100.00
8286;BME280;4181;43.416;24.598;2023-04-26T10:57:19;99089.63;;;20.48;100.00
8286;BME280;4181;43.416;24.598;2023-04-26T11:02:57;99089.56;;;20.68;100.00
8286;BME280;4181;43.416;24.598;2023-04-26T11:08:14;99087.75;;;20.84;100.00
8286;BME280;4181;43.416;24.598;2023-04-26T11:10:41;99087.25;;;21.03;100.00
8286;BME280;4181;43.416;24.598;2023-04-26T11:13:07;99078.88;;;20.91;100.00
8286;BME280;4181;43.416;24.598;2023-04-26T11:15:33;99093.09;;;20.89;100.00
8286;BME280;4181;43.416;24.598;2023-04-26T11:18:04;99083.25;;;20.92;100.00
8286;BME280;4181;43.416;24.598;2023-04-26T11:20:31;99083.88;;;20.97;100.00
8286;BME280;4181;43.416;24.598;2023-04-26T11:22:57;99075.56;;;20.97;100.00
8286;BME280;4181;43.416;24.598;2023-04-26T11:25:27;99079.44;;;20.96;100.00
8286;BME280;4181;43.416;24.598;2023-04-26T11:28:02;99084.69;;;20.65;100.00
8286;BME280;4181;43.416;24.598;2023-04-26T11:30:31;99084.22;;;20.51;100.00
8286;BME280;4181;43.416;24.598;2023-04-26T11:32:58;99085.19;;;20.67;100.00
8286;BME280;4181;43.416;24.598;2023-04-26T11:35:24;99078.47;;;20.56;100.00
8286;BME280;4181;43.416;24.598;2023-04-26T11:37:51;99085.09;;;20.43;100.00
8286;BME280;4181;43.416;24.598;2023-04-26T11:40:17;99100.75;;;20.27;100.00
8286;BME280;4181;43.416;24.598;2023-04-26T11:42:45;99072.66;;;20.49;100.00
8286;BME280;4181;43.416;24.598;2023-04-26T11:45:13;99077.25;;;20.45;100.00
8286;BME280;4181;43.416;24.598;2023-04-26T11:47:39;99062.94;;;20.43;100.00
8286;BME280;4181;43.416;24.598;2023-04-26T11:50:06;99080.09;;;20.69;100.00
8286;BME280;4181;43.416;24.598;2023-04-26T11:52:32;99051.69;;;20.72;100.00
8286;BME280;4181;43.416;24.598;2023-04-26T11:55:04;99071.78;;;20.81;100.00
8286;BME280;4181;43.416;24.598;2023-04-26T11:57:30;99065.94;;;20.83;100.00
8286;BME280;4181;43.416;24.598;2023-04-26T12:00:10;99070.72;;;20.62;100.00
8286;BME280;4181;43.416;24.598;2023-04-26T12:02:36;99075.00;;;20.59;100.00
8286;BME280;4181;43.416;24.598;2023-04-26T12:05:01;99073.75;;;20.69;100.00
8286;BME280;4181;43.416;24.598;2023-04-26T12:07:37;99070.84;;;20.65;100.00
8286;BME280;4181;43.416;24.598;2023-04-26T12:10:16;99064.75;;;20.84;100.00
8286;BME280;4181;43.416;24.598;2023-04-26T12:12:43;99068.13;;;20.89;100.00
8286;BME280;4181;43.416;24.598;2023-04-26T12:15:10;99067.91;;;20.94;100.00
8286;BME280;4181;43.416;24.598;2023-04-26T12:17:36;99063.81;;;20.68;100.00
8286;BME280;4181;43.416;24.598;2023-04-26T12:20:08;99076.72;;;20.64;100.00
8286;BME280;4181;43.416;24.598;2023-04-26T12:22:34;99075.22;;;20.66;100.00
8286;BME280;4181;43.416;24.598;2023-04-26T12:25:04;99074.75;;;20.52;100.00
8286;BME280;4181;43.416;24.598;2023-04-26T12:27:30;99067.59;;;20.51;100.00
8286;BME280;4181;43.416;24.598;2023-04-26T12:29:56;99067.34;;;20.44;100.00
8286;BME280;4181;43.416;24.598;2023-04-26T12:32:22;99076.47;;;20.57;100.00
8286;BME280;4181;43.416;24.598;2023-04-26T12:34:47;99067.81;;;20.58;100.00
8286;BME280;4181;43.416;24.598;2023-04-26T12:37:13;99073.63;;;20.65;100.00
8286;BME280;4181;43.416;24.598;2023-04-26T12:39:38;99064.63;;;20.80;100.00
8286;BME280;4181;43.416;24.598;2023-04-26T12:42:04;99056.78;;;20.82;100.00
8286;BME280;4181;43.416;24.598;2023-04-26T12:45:05;99060.94;;;20.88;100.00
8286;BME280;4181;43.416;24.598;2023-04-26T12:47:32;99054.03;;;20.82;100.00
8286;BME280;4181;43.416;24.598;2023-04-26T12:49:57;99057.47;;;20.91;100.00
8286;BME280;4181;43.416;24.598;2023-04-26T12:52:25;99047.59;;;21.02;100.00
8286;BME280;4181;43.416;24.598;2023-04-26T12:54:52;99055.47;;;21.12;100.00
8286;BME280;4181;43.416;24.598;2023-04-26T12:57:18;99050.63;;;21.09;100.00
8286;BME280;4181;43.416;24.598;2023-04-26T12:59:45;99041.31;;;20.93;100.00
8286;BME280;4181;43.416;24.598;2023-04-26T13:02:11;99050.50;;;21.18;100.00
8286;BME280;4181;43.416;24.598;2023-04-26T13:04:36;99042.25;;;21.33;100.00
8286;BME280;4181;43.416;24.598;2023-04-26T13:07:02;99040.84;;;21.52;100.00
8286;BME280;4181;43.416;24.598;2023-04-26T13:09:28;99035.63;;;21.62;100.00
8286;BME280;4181;43.416;24.598;2023-04-26T13:11:53;99038.84;;;21.76;100.00
8286;BME280;4181;43.416;24.598;2023-04-26T13:14:19;99017.66;;;21.72;100.00